sensor_id;sensor_type;location;lat;lon;timestamp;P1;P2;P0
77320;PMS7003;66382;52.252;8.780;2023-06-22T00:00:42;25.33;24.67;19.67
77320;PMS7003;66382;52.252;8.780;2023-06-22T00:03:08;24.00;24.00;18.67
77320;PMS7003;66382;52.252;8.780;2023-06-22T00:05:34;26.33;26.33;20.33
77320;PMS7003;66382;52.252;8.780;2023-06-22T00:08:01;25.67;25.67;20.33
77320;PMS7003;66382;52.252;8.780;2023-06-22T00:10:28;24.75;24.75;20.25
77320;PMS7003;66382;52.252;8.780;2023-06-22T00:12:55;23.00;22.50;20.50
77320;PMS7003;66382;52.252;8.780;2023-06-22T00:15:21;24.75;24.75;18.50
77320;PMS7003;66382;52.252;8.780;2023-06-22T00:17:46;26.33;26.33;20.33
77320;PMS7003;66382;52.252;8.780;2023-06-22T00:20:12;23.00;23.00;18.67
77320;PMS7003;66382;52.252;8.780;2023-06-22T00:22:38;22.67;22.33;18.67
77320;PMS7003;66382;52.252;8.780;2023-06-22T00:25:05;30.67;27.00;20.33
77320;PMS7003;66382;52.252;8.780;2023-06-22T00:27:31;27.25;27.25;20.25
77320;PMS7003;66382;52.252;8.780;2023-06-22T00:29:58;27.33;27.33;19.67
77320;PMS7003;66382;52.252;8.780;2023-06-22T00:32:24;26.50;26.50;20.25
77320;PMS7003;66382;52.252;8.780;2023-06-22T00:34:50;24.67;24.67;19.67
77320;PMS7003;66382;52.252;8.780;2023-06-22T00:37:16;23.00;23.00;18.33
77320;PMS7003;66382;52.252;8.780;2023-06-22T00:39:43;23.50;23.50;19.50
77320;PMS7003;66382;52.252;8.780;2023-06-22T00:42:09;23.75;23.75;18.50
77320;PMS7003;66382;52.252;8.780;2023-06-22T00:44:35;24.67;24.67;20.00
77320;PMS7003;66382;52.252;8.780;2023-06-22T00:47:02;21.33;21.33;19.00
77320;PMS7003;66382;52.252;8.780;2023-06-22T00:49:29;23.00;23.00;18.75
77320;PMS7003;66382;52.252;8.780;2023-06-22T00:51:56;24.00;24.00;19.00
77320;PMS7003;66382;52.252;8.780;2023-06-22T00:54:23;23.75;23.75;17.50
77320;PMS7003;66382;52.252;8.780;2023-06-22T00:56:49;24.25;24.25;19.25
77320;PMS7003;66382;52.252;8.780;2023-06-22T00:59:16;23.25;23.25;19.75
77320;PMS7003;66382;52.252;8.780;2023-06-22T01:01:41;21.67;21.67;18.33
77320;PMS7003;66382;52.252;8.780;2023-06-22T01:04:09;21.00;21.00;18.00
77320;PMS7003;66382;52.252;8.780;2023-06-22T01:06:35;20.75;20.75;18.25
77320;PMS7003;66382;52.252;8.780;2023-06-22T01:09:07;21.50;21.50;17.25
77320;PMS7003;66382;52.252;8.780;2023-06-22T01:11:41;24.75;24.00;19.75
77320;PMS7003;66382;52.252;8.780;2023-06-22T01:14:11;23.75;23.75;18.75
77320;PMS7003;66382;52.252;8.780;2023-06-22T01:16:41;23.50;23.50;18.25
77320;PMS7003;66382;52.252;8.780;2023-06-22T01:22:00;25.50;25.50;20.00
77320;PMS7003;66382;52.252;8.780;2023-06-22T01:24:27;22.00;22.00;17.25
77320;PMS7003;66382;52.252;8.780;2023-06-22T01:27:00;28.50;28.50;20.00
77320;PMS7003;66382;52.252;8.780;2023-06-22T01:29:42;21.00;21.00;17.75
77320;PMS7003;66382;52.252;8.780;2023-06-22T01:32:09;25.50;25.50;20.25
77320;PMS7003;66382;52.252;8.780;2023-06-22T01:34:36;24.75;24.75;20.25
77320;PMS7003;66382;52.252;8.780;2023-06-22T01:37:03;27.00;27.00;21.50
77320;PMS7003;66382;52.252;8.780;2023-06-22T01:39:30;25.50;25.50;19.50
77320;PMS7003;66382;52.252;8.780;2023-06-22T01:41:57;27.50;27.50;20.75
77320;PMS7003;66382;52.252;8.780;2023-06-22T01:44:23;27.75;27.75;21.75
77320;PMS7003;66382;52.252;8.780;2023-06-22T01:46:52;26.00;25.50;20.25
77320;PMS7003;66382;52.252;8.780;2023-06-22T01:49:19;27.00;27.00;20.50
77320;PMS7003;66382;52.252;8.780;2023-06-22T01:51:44;26.67;26.67;20.33
77320;PMS7003;66382;52.252;8.780;2023-06-22T01:54:10;24.75;24.75;20.25
77320;PMS7003;66382;52.252;8.780;2023-06-22T01:56:36;25.67;25.67;20.33
77320;PMS7003;66382;52.252;8.780;2023-06-22T01:59:04;26.67;26.00;20.33
77320;PMS7003;66382;52.252;8.780;2023-06-22T02:01:35;25.50;25.50;18.75
77320;PMS7003;66382;52.252;8.780;2023-06-22T02:04:11;22.25;22.25;17.50
77320;PMS7003;66382;52.252;8.780;2023-06-22T02:06:42;26.50;26.50;20.25
77320;PMS7003;66382;52.252;8.780;2023-06-22T02:09:12;23.00;23.00;19.00
77320;PMS7003;66382;52.252;8.780;2023-06-22T02:11:41;28.25;28.25;20.25
77320;PMS7003;66382;52.252;8.780;2023-06-22T02:14:09;24.25;24.25;17.75
77320;PMS7003;66382;52.252;8.780;2023-06-22T02:16:37;25.50;25.50;19.25
77320;PMS7003;66382;52.252;8.780;2023-06-22T02:19:03;25.00;25.00;20.25
77320;PMS7003;66382;52.252;8.780;2023-06-22T02:21:31;26.33;26.33;20.33
77320;PMS7003;66382;52.252;8.780;2023-06-22T02:23:57;28.00;28.00;21.75
77320;PMS7003;66382;52.252;8.780;2023-06-22T02:26:23;25.33;25.33;20.33
77320;PMS7003;66382;52.252;8.780;2023-06-22T02:28:50;25.25;25.25;20.00
77320;PMS7003;66382;52.252;8.780;2023-06-22T02:31:15;17.00;17.00;15.67
77320;PMS7003;66382;52.252;8.780;2023-06-22T02:33:41;25.67;25.67;18.67
77320;PMS7003;66382;52.252;8.780;2023-06-22T02:36:07;26.00;25.00;20.67
77320;PMS7003;66382;52.252;8.780;2023-06-22T02:38:34;28.33;28.33;22.00
77320;PMS7003;66382;52.252;8.780;2023-06-22T02:41:00;25.75;25.75;20.25
77320;PMS7003;66382;52.252;8.780;2023-06-22T02:43:25;28.67;28.67;20.33
77320;PMS7003;66382;52.252;8.780;2023-06-22T02:45:51;24.00;24.00;19.00
77320;PMS7003;66382;52.252;8.780;2023-06-22T02:48:17;25.00;25.00;20.33
77320;PMS7003;66382;52.252;8.780;2023-06-22T02:50:43;25.67;25.67;20.33
77320;PMS7003;66382;52.252;8.780;2023-06-22T02:53:08;26.67;26.67;20.00
77320;PMS7003;66382;52.252;8.780;2023-06-22T02:55:36;26.33;25.67;20.33
77320;PMS7003;66382;52.252;8.780;2023-06-22T02:58:02;27.00;27.00;20.25
77320;PMS7003;66382;52.252;8.780;2023-06-22T03:00:27;25.67;25.67;19.67
77320;PMS7003;66382;52.252;8.780;2023-06-22T03:02:53;28.33;28.33;20.67
77320;PMS7003;66382;52.252;8.780;2023-06-22T03:05:19;28.67;28.67;20.33
77320;PMS7003;66382;52.252;8.780;2023-06-22T03:07:44;24.33;24.33;19.00
77320;PMS7003;66382;52.252;8.780;2023-06-22T03:10:11;22.33;22.33;17.67
77320;PMS7003;66382;52.252;8.780;2023-06-22T03:12:38;23.75;23.75;19.00
77320;PMS7003;66382;52.252;8.780;2023-06-22T03:15:05;26.50;26.50;20.50
77320;PMS7003;66382;52.252;8.780;2023-06-22T03:17:31;20.25;20.25;16.25
77320;PMS7003;66382;52.252;8.780;2023-06-22T03:19:57;27.00;27.00;20.33
77320;PMS7003;66382;52.252;8.780;2023-06-22T03:22:23;24.00;24.00;19.33
77320;PMS7003;66382;52.252;8.780;2023-06-22T03:24:48;25.00;25.00;20.00
77320;PMS7003;66382;52.252;8.780;2023-06-22T03:27:14;22.33;22.33;17.33
77320;PMS7003;66382;52.252;8.780;2023-06-22T03:29:41;26.00;24.67;20.00
77320;PMS7003;66382;52.252;8.780;2023-06-22T03:32:07;25.00;25.00;19.50
77320;PMS7003;66382;52.252;8.780;2023-06-22T03:34:33;22.33;22.00;17.67
77320;PMS7003;66382;52.252;8.780;2023-06-22T03:36:58;26.67;26.67;19.67
77320;PMS7003;66382;52.252;8.780;2023-06-22T03:39:24;22.67;22.67;18.33
77320;PMS7003;66382;52.252;8.780;2023-06-22T03:41:50;23.33;23.33;19.67
77320;PMS7003;66382;52.252;8.780;2023-06-22T03:44:16;21.00;21.00;17.33
77320;PMS7003;66382;52.252;8.780;2023-06-22T03:46:43;20.67;20.67;18.67
77320;PMS7003;66382;52.252;8.780;2023-06-22T03:49:08;21.75;21.75;17.75
77320;PMS7003;66382;52.252;8.780;2023-06-22T03:51:34;25.00;25.00;19.67
77320;PMS7003;66382;52.252;8.780;2023-06-22T03:54:00;22.67;22.67;19.00
77320;PMS7003;66382;52.252;8.780;2023-06-22T03:56:25;24.67;24.67;20.33
77320;PMS7003;66382;52.252;8.780;2023-06-22T03:58:51;26.00;26.00;20.00
77320;PMS7003;66382;52.252;8.780;2023-06-22T04:01:17;20.33;20.33;16.00
77320;PMS7003;66382;52.252;8.780;2023-06-22T04:03:44;24.50;24.50;20.25
77320;PMS7003;66382;52.252;8.780;2023-06-22T04:06:10;24.25;24.25;19.50
77320;PMS7003;66382;52.252;8.780;2023-06-22T04:08:36;28.00;28.00;21.33
77320;PMS7003;66382;52.252;8.780;2023-06-22T04:11:01;25.67;25.67;20.00
77320;PMS7003;66382;52.252;8.780;2023-06-22T04:13:27;27.33;27.33;20.33
77320;PMS7003;66382;52.252;8.780;2023-06-22T04:15:53;28.67;28.67;20.33
77320;PMS7003;66382;52.252;8.780;2023-06-22T04:18:18;26.00;26.00;20.33
77320;PMS7003;66382;52.252;8.780;2023-06-22T04:20:46;30.33;30.33;21.00
77320;PMS7003;66382;52.252;8.780;2023-06-22T04:23:11;26.50;26.50;20.50
77320;PMS7003;66382;52.252;8.780;2023-06-22T04:25:37;30.67;30.67;22.33
77320;PMS7003;66382;52.252;8.780;2023-06-22T04:28:04;29.25;29.00;20.75
77320;PMS7003;66382;52.252;8.780;2023-06-22T04:30:32;32.33;31.33;22.00
77320;PMS7003;66382;52.252;8.780;2023-06-22T04:32:58;25.00;25.00;19.50
77320;PMS7003;66382;52.252;8.780;2023-06-22T04:35:24;25.33;25.33;20.33
77320;PMS7003;66382;52.252;8.780;2023-06-22T04:37:52;27.75;27.75;21.00
77320;PMS7003;66382;52.252;8.780;2023-06-22T04:40:18;28.75;28.75;21.75
77320;PMS7003;66382;52.252;8.780;2023-06-22T04:42:44;26.00;26.00;20.33
77320;PMS7003;66382;52.252;8.780;2023-06-22T04:45:10;31.67;31.00;22.33
77320;PMS7003;66382;52.252;8.780;2023-06-22T04:47:35;29.00;29.00;20.67
77320;PMS7003;66382;52.252;8.780;2023-06-22T04:50:01;25.33;25.33;19.67
77320;PMS7003;66382;52.252;8.780;2023-06-22T04:52:27;22.00;22.00;15.67
77320;PMS7003;66382;52.252;8.780;2023-06-22T04:54:54;24.67;24.67;19.33
77320;PMS7003;66382;52.252;8.780;2023-06-22T04:57:20;23.25;23.25;18.25
77320;PMS7003;66382;52.252;8.780;2023-06-22T04:59:46;27.00;27.00;19.67
77320;PMS7003;66382;52.252;8.780;2023-06-22T05:02:11;23.00;23.00;18.67
77320;PMS7003;66382;52.252;8.780;2023-06-22T05:04:37;22.00;22.00;17.67
77320;PMS7003;66382;52.252;8.780;2023-06-22T05:07:03;26.33;25.67;20.00
77320;PMS7003;66382;52.252;8.780;2023-06-22T05:09:29;23.50;23.50;18.00
77320;PMS7003;66382;52.252;8.780;2023-06-22T05:11:57;21.50;21.50;17.75
77320;PMS7003;66382;52.252;8.780;2023-06-22T05:14:23;26.50;26.50;20.75
77320;PMS7003;66382;52.252;8.780;2023-06-22T05:16:48;26.00;26.00;20.00
77320;PMS7003;66382;52.252;8.780;2023-06-22T05:19:14;25.00;25.00;19.33
77320;PMS7003;66382;52.252;8.780;2023-06-22T05:21:40;24.00;23.67;19.67
77320;PMS7003;66382;52.252;8.780;2023-06-22T05:24:06;26.33;26.33;19.33
77320;PMS7003;66382;52.252;8.780;2023-06-22T05:26:32;25.67;25.67;20.33
77320;PMS7003;66382;52.252;8.780;2023-06-22T05:29:01;29.75;29.50;21.25
77320;PMS7003;66382;52.252;8.780;2023-06-22T05:31:28;30.25;30.25;22.25
77320;PMS7003;66382;52.252;8.780;2023-06-22T05:33:54;26.25;26.25;18.75
77320;PMS7003;66382;52.252;8.780;2023-06-22T05:36:21;30.50;30.25;22.25
77320;PMS7003;66382;52.252;8.780;2023-06-22T05:38:47;30.50;30.25;21.75
77320;PMS7003;66382;52.252;8.780;2023-06-22T05:41:13;31.67;30.67;23.00
77320;PMS7003;66382;52.252;8.780;2023-06-22T05:43:38;34.00;32.67;22.33
77320;PMS7003;66382;52.252;8.780;2023-06-22T05:46:06;31.00;30.67;22.33
77320;PMS7003;66382;52.252;8.780;2023-06-22T05:48:31;31.50;30.25;22.25
77320;PMS7003;66382;52.252;8.780;2023-06-22T05:50:57;26.00;26.00;20.67
77320;PMS7003;66382;52.252;8.780;2023-06-22T05:53:24;31.50;30.50;22.25
77320;PMS7003;66382;52.252;8.780;2023-06-22T05:55:49;32.33;31.33;22.33
77320;PMS7003;66382;52.252;8.780;2023-06-22T05:58:15;29.33;29.33;22.33
77320;PMS7003;66382;52.252;8.780;2023-06-22T06:00:41;37.33;34.00;23.67
77320;PMS7003;66382;52.252;8.780;2023-06-22T06:03:09;31.25;30.25;23.00
77320;PMS7003;66382;52.252;8.780;2023-06-22T06:05:35;30.75;30.25;22.50
77320;PMS7003;66382;52.252;8.780;2023-06-22T06:08:02;33.75;32.25;23.25
77320;PMS7003;66382;52.252;8.780;2023-06-22T06:10:29;33.50;32.00;23.25
77320;PMS7003;66382;52.252;8.780;2023-06-22T06:12:55;32.00;31.00;22.33
77320;PMS7003;66382;52.252;8.780;2023-06-22T06:15:20;34.33;32.67;23.33
77320;PMS7003;66382;52.252;8.780;2023-06-22T06:17:47;30.50;30.00;21.50
77320;PMS7003;66382;52.252;8.780;2023-06-22T06:20:14;31.75;31.00;22.00
77320;PMS7003;66382;52.252;8.780;2023-06-22T06:22:40;30.00;29.50;22.00
77320;PMS7003;66382;52.252;8.780;2023-06-22T06:25:06;32.33;31.00;23.67
77320;PMS7003;66382;52.252;8.780;2023-06-22T06:27:32;31.75;30.75;22.00
77320;PMS7003;66382;52.252;8.780;2023-06-22T06:29:58;33.00;32.00;20.33
77320;PMS7003;66382;52.252;8.780;2023-06-22T06:32:24;27.33;27.33;21.00
77320;PMS7003;66382;52.252;8.780;2023-06-22T06:34:49;32.00;31.00;22.33
77320;PMS7003;66382;52.252;8.780;2023-06-22T06:37:16;31.00;30.33;22.33
77320;PMS7003;66382;52.252;8.780;2023-06-22T06:39:42;28.75;28.25;22.25
77320;PMS7003;66382;52.252;8.780;2023-06-22T06:42:08;31.33;30.67;22.67
77320;PMS7003;66382;52.252;8.780;2023-06-22T06:44:34;28.00;28.00;22.00
77320;PMS7003;66382;52.252;8.780;2023-06-22T06:47:00;34.33;32.33;23.33
77320;PMS7003;66382;52.252;8.780;2023-06-22T06:49:25;33.33;32.00;22.33
77320;PMS7003;66382;52.252;8.780;2023-06-22T06:51:51;34.33;32.00;23.00
77320;PMS7003;66382;52.252;8.780;2023-06-22T06:54:18;29.33;29.33;20.67
77320;PMS7003;66382;52.252;8.780;2023-06-22T06:56:44;32.00;31.00;23.50
77320;PMS7003;66382;52.252;8.780;2023-06-22T06:59:09;32.00;31.33;22.33
77320;PMS7003;66382;52.252;8.780;2023-06-22T07:01:35;31.67;30.67;22.67
77320;PMS7003;66382;52.252;8.780;2023-06-22T07:04:01;33.33;32.33;22.00
77320;PMS7003;66382;52.252;8.780;2023-06-22T07:06:26;33.67;32.67;23.33
77320;PMS7003;66382;52.252;8.780;2023-06-22T07:08:52;31.67;30.67;22.00
77320;PMS7003;66382;52.252;8.780;2023-06-22T07:11:19;30.67;30.33;22.33
77320;PMS7003;66382;52.252;8.780;2023-06-22T07:13:45;33.25;32.00;22.75
77320;PMS7003;66382;52.252;8.780;2023-06-22T07:16:11;28.33;28.33;20.67
77320;PMS7003;66382;52.252;8.780;2023-06-22T07:18:37;21.67;21.67;14.33
77320;PMS7003;66382;52.252;8.780;2023-06-22T07:21:04;32.75;31.50;21.50
77320;PMS7003;66382;52.252;8.780;2023-06-22T07:23:30;32.33;31.33;23.00
77320;PMS7003;66382;52.252;8.780;2023-06-22T07:25:56;33.33;32.00;22.33
77320;PMS7003;66382;52.252;8.780;2023-06-22T07:28:23;30.00;29.67;22.00
77320;PMS7003;66382;52.252;8.780;2023-06-22T07:30:48;30.50;30.25;22.00
77320;PMS7003;66382;52.252;8.780;2023-06-22T07:33:16;30.33;30.00;22.67
77320;PMS7003;66382;52.252;8.780;2023-06-22T07:35:41;32.50;31.50;23.25
77320;PMS7003;66382;52.252;8.780;2023-06-22T07:38:07;33.00;32.00;22.33
77320;PMS7003;66382;52.252;8.780;2023-06-22T07:40:33;31.33;30.33;20.33
77320;PMS7003;66382;52.252;8.780;2023-06-22T07:42:59;32.33;31.33;21.67
77320;PMS7003;66382;52.252;8.780;2023-06-22T07:45:26;32.00;31.00;23.00
77320;PMS7003;66382;52.252;8.780;2023-06-22T07:47:51;33.75;32.50;22.75
77320;PMS7003;66382;52.252;8.780;2023-06-22T07:50:17;29.67;29.67;21.33
77320;PMS7003;66382;52.252;8.780;2023-06-22T07:52:43;35.00;31.67;22.00
77320;PMS7003;66382;52.252;8.780;2023-06-22T07:55:08;31.67;30.67;22.00
77320;PMS7003;66382;52.252;8.780;2023-06-22T07:57:34;36.00;33.33;24.00
77320;PMS7003;66382;52.252;8.780;2023-06-22T08:00:00;32.33;31.33;23.00
77320;PMS7003;66382;52.252;8.780;2023-06-22T08:02:27;34.25;32.25;23.25
77320;PMS7003;66382;52.252;8.780;2023-06-22T08:04:53;34.00;32.50;23.00
77320;PMS7003;66382;52.252;8.780;2023-06-22T08:07:19;32.33;30.67;22.33
77320;PMS7003;66382;52.252;8.780;2023-06-22T08:09:45;39.67;35.33;23.33
77320;PMS7003;66382;52.252;8.780;2023-06-22T08:12:12;31.00;30.25;23.00
77320;PMS7003;66382;52.252;8.780;2023-06-22T08:14:38;33.33;31.67;22.00
77320;PMS7003;66382;52.252;8.780;2023-06-22T08:17:04;40.50;36.25;24.25
77320;PMS7003;66382;52.252;8.780;2023-06-22T08:19:31;36.50;33.50;24.00
77320;PMS7003;66382;52.252;8.780;2023-06-22T08:21:57;36.00;33.50;24.00
77320;PMS7003;66382;52.252;8.780;2023-06-22T08:24:23;33.67;32.33;22.67
77320;PMS7003;66382;52.252;8.780;2023-06-22T08:26:50;33.00;32.00;23.00
77320;PMS7003;66382;52.252;8.780;2023-06-22T08:29:17;31.50;30.75;22.75
77320;PMS7003;66382;52.252;8.780;2023-06-22T08:31:42;34.67;32.67;23.67
77320;PMS7003;66382;52.252;8.780;2023-06-22T08:34:08;27.67;27.67;21.67
77320;PMS7003;66382;52.252;8.780;2023-06-22T08:36:35;35.67;33.33;24.00
77320;PMS7003;66382;52.252;8.780;2023-06-22T08:39:01;34.00;32.50;22.25
77320;PMS7003;66382;52.252;8.780;2023-06-22T08:41:27;31.00;30.00;23.00
77320;PMS7003;66382;52.252;8.780;2023-06-22T08:43:52;35.33;33.33;23.00
77320;PMS7003;66382;52.252;8.780;2023-06-22T08:46:18;36.33;33.67;24.33
77320;PMS7003;66382;52.252;8.780;2023-06-22T08:48:44;29.33;29.33;20.33
77320;PMS7003;66382;52.252;8.780;2023-06-22T08:51:10;34.00;32.33;22.67
77320;PMS7003;66382;52.252;8.780;2023-06-22T08:53:39;38.00;35.00;24.00
77320;PMS7003;66382;52.252;8.780;2023-06-22T08:56:05;32.00;31.00;22.50
77320;PMS7003;66382;52.252;8.780;2023-06-22T08:58:31;33.00;30.67;22.67
77320;PMS7003;66382;52.252;8.780;2023-06-22T09:00:56;39.00;35.00;24.67
77320;PMS7003;66382;52.252;8.780;2023-06-22T09:03:22;33.00;31.67;24.00
77320;PMS7003;66382;52.252;8.780;2023-06-22T09:05:48;37.00;34.00;25.00
77320;PMS7003;66382;52.252;8.780;2023-06-22T09:08:13;40.67;36.33;26.67
77320;PMS7003;66382;52.252;8.780;2023-06-22T09:10:41;35.00;33.00;23.67
77320;PMS7003;66382;52.252;8.780;2023-06-22T09:13:06;38.75;35.25;24.75
77320;PMS7003;66382;52.252;8.780;2023-06-22T09:15:32;37.00;34.00;23.67
77320;PMS7003;66382;52.252;8.780;2023-06-22T09:17:58;35.33;33.33;23.67
77320;PMS7003;66382;52.252;8.780;2023-06-22T09:20:23;35.00;33.00;23.00
77320;PMS7003;66382;52.252;8.780;2023-06-22T09:22:49;38.00;35.00;24.33
77320;PMS7003;66382;52.252;8.780;2023-06-22T09:25:15;37.67;34.00;24.33
77320;PMS7003;66382;52.252;8.780;2023-06-22T09:27:42;34.00;32.33;23.33
77320;PMS7003;66382;52.252;8.780;2023-06-22T09:30:08;37.50;34.50;24.75
77320;PMS7003;66382;52.252;8.780;2023-06-22T09:32:34;33.75;32.00;23.00
77320;PMS7003;66382;52.252;8.780;2023-06-22T09:35:02;36.33;33.33;24.00
77320;PMS7003;66382;52.252;8.780;2023-06-22T09:37:29;39.25;35.50;24.50
77320;PMS7003;66382;52.252;8.780;2023-06-22T09:39:55;40.00;36.00;25.33
77320;PMS7003;66382;52.252;8.780;2023-06-22T09:42:20;41.33;36.67;26.33
77320;PMS7003;66382;52.252;8.780;2023-06-22T09:44:47;42.00;37.00;25.33
77320;PMS7003;66382;52.252;8.780;2023-06-22T09:47:13;38.75;35.25;25.00
77320;PMS7003;66382;52.252;8.780;2023-06-22T09:49:39;37.00;34.00;24.00
77320;PMS7003;66382;52.252;8.780;2023-06-22T09:52:05;42.33;37.33;26.00
77320;PMS7003;66382;52.252;8.780;2023-06-22T09:54:31;42.00;36.50;26.00
77320;PMS7003;66382;52.252;8.780;2023-06-22T09:56:57;42.67;37.67;26.00
77320;PMS7003;66382;52.252;8.780;2023-06-22T09:59:22;40.67;36.00;26.00
77320;PMS7003;66382;52.252;8.780;2023-06-22T10:01:49;44.00;38.00;26.00
77320;PMS7003;66382;52.252;8.780;2023-06-22T10:04:15;42.25;37.00;26.00
77320;PMS7003;66382;52.252;8.780;2023-06-22T10:06:41;40.00;35.67;26.00
77320;PMS7003;66382;52.252;8.780;2023-06-22T10:09:07;39.00;35.00;25.67
77320;PMS7003;66382;52.252;8.780;2023-06-22T10:11:33;38.00;34.75;25.25
77320;PMS7003;66382;52.252;8.780;2023-06-22T10:13:58;39.00;35.33;26.00
77320;PMS7003;66382;52.252;8.780;2023-06-22T10:16:29;43.33;38.00;25.33
77320;PMS7003;66382;52.252;8.780;2023-06-22T10:18:57;39.00;35.00;24.50
77320;PMS7003;66382;52.252;8.780;2023-06-22T10:21:23;39.00;35.00;24.50
77320;PMS7003;66382;52.252;8.780;2023-06-22T10:23:49;44.00;38.33;26.00
77320;PMS7003;66382;52.252;8.780;2023-06-22T10:26:14;41.33;36.67;26.67
77320;PMS7003;66382;52.252;8.780;2023-06-22T10:28:40;38.67;35.00;26.00
77320;PMS7003;66382;52.252;8.780;2023-06-22T10:31:06;43.00;37.67;26.00
77320;PMS7003;66382;52.252;8.780;2023-06-22T10:33:31;46.33;40.00;28.00
77320;PMS7003;66382;52.252;8.780;2023-06-22T10:35:58;43.67;38.33;27.00
77320;PMS7003;66382;52.252;8.780;2023-06-22T10:38:24;41.25;36.75;26.25
77320;PMS7003;66382;52.252;8.780;2023-06-22T10:40:50;44.00;38.33;26.67
77320;PMS7003;66382;52.252;8.780;2023-06-22T10:43:16;42.33;37.33;26.33
77320;PMS7003;66382;52.252;8.780;2023-06-22T10:45:41;35.00;32.33;23.33
77320;PMS7003;66382;52.252;8.780;2023-06-22T10:48:07;38.33;35.00;24.33
77320;PMS7003;66382;52.252;8.780;2023-06-22T10:50:33;35.00;33.00;23.00
77320;PMS7003;66382;52.252;8.780;2023-06-22T10:53:00;34.00;32.00;24.00
77320;PMS7003;66382;52.252;8.780;2023-06-22T10:55:26;36.25;33.50;23.25
77320;PMS7003;66382;52.252;8.780;2023-06-22T10:57:51;38.67;35.33;24.00
77320;PMS7003;66382;52.252;8.780;2023-06-22T11:00:17;34.00;32.33;23.00
77320;PMS7003;66382;52.252;8.780;2023-06-22T11:02:43;32.75;31.75;22.25
77320;PMS7003;66382;52.252;8.780;2023-06-22T11:05:09;33.67;32.33;22.33
77320;PMS7003;66382;52.252;8.780;2023-06-22T11:07:36;35.00;32.50;23.25
77320;PMS7003;66382;52.252;8.780;2023-06-22T11:10:04;33.75;32.00;23.50
77320;PMS7003;66382;52.252;8.780;2023-06-22T11:12:30;27.80;27.80;20.20
77320;PMS7003;66382;52.252;8.780;2023-06-22T11:14:56;28.50;28.50;21.00
77320;PMS7003;66382;52.252;8.780;2023-06-22T11:17:22;29.00;27.50;20.25
77320;PMS7003;66382;52.252;8.780;2023-06-22T11:19:47;30.50;30.00;22.00
77320;PMS7003;66382;52.252;8.780;2023-06-22T11:22:13;29.00;28.75;22.00
77320;PMS7003;66382;52.252;8.780;2023-06-22T11:24:39;26.25;26.25;20.50
77320;PMS7003;66382;52.252;8.780;2023-06-22T11:27:06;26.50;26.50;20.25
77320;PMS7003;66382;52.252;8.780;2023-06-22T11:29:32;30.40;30.20;20.40
77320;PMS7003;66382;52.252;8.780;2023-06-22T11:31:58;25.00;25.00;20.00
77320;PMS7003;66382;52.252;8.780;2023-06-22T11:34:23;21.50;21.50;16.50
77320;PMS7003;66382;52.252;8.780;2023-06-22T11:36:49;24.50;24.25;18.50
77320;PMS7003;66382;52.252;8.780;2023-06-22T11:39:15;29.00;29.00;20.50
77320;PMS7003;66382;52.252;8.780;2023-06-22T11:41:41;26.25;26.25;20.00
77320;PMS7003;66382;52.252;8.780;2023-06-22T11:44:08;26.40;26.40;20.60
77320;PMS7003;66382;52.252;8.780;2023-06-22T11:46:34;25.40;25.40;20.20
77320;PMS7003;66382;52.252;8.780;2023-06-22T11:48:59;26.00;26.00;20.00
77320;PMS7003;66382;52.252;8.780;2023-06-22T11:51:25;26.25;26.25;19.75
77320;PMS7003;66382;52.252;8.780;2023-06-22T11:53:51;22.50;22.50;18.75
77320;PMS7003;66382;52.252;8.780;2023-06-22T11:56:16;27.00;27.00;20.25
77320;PMS7003;66382;52.252;8.780;2023-06-22T11:58:42;21.75;21.75;16.75
77320;PMS7003;66382;52.252;8.780;2023-06-22T12:01:09;26.00;26.00;19.00
77320;PMS7003;66382;52.252;8.780;2023-06-22T12:03:35;21.00;21.00;17.00
77320;PMS7003;66382;52.252;8.780;2023-06-22T12:06:01;21.75;21.75;17.25
77320;PMS7003;66382;52.252;8.780;2023-06-22T12:08:26;20.00;20.00;17.75
77320;PMS7003;66382;52.252;8.780;2023-06-22T12:10:52;20.50;20.50;16.50
77320;PMS7003;66382;52.252;8.780;2023-06-22T12:13:18;22.25;22.25;18.25
77320;PMS7003;66382;52.252;8.780;2023-06-22T12:15:44;19.80;19.40;15.00
77320;PMS7003;66382;52.252;8.780;2023-06-22T12:18:11;19.50;19.50;15.50
77320;PMS7003;66382;52.252;8.780;2023-06-22T12:20:37;20.20;20.20;15.80
77320;PMS7003;66382;52.252;8.780;2023-06-22T12:23:02;22.25;22.25;17.75
77320;PMS7003;66382;52.252;8.780;2023-06-22T12:25:28;16.75;16.75;13.75
77320;PMS7003;66382;52.252;8.780;2023-06-22T12:27:54;17.75;17.75;13.75
77320;PMS7003;66382;52.252;8.780;2023-06-22T12:30:20;17.50;17.50;14.00
77320;PMS7003;66382;52.252;8.780;2023-06-22T12:32:45;19.00;19.00;13.50
77320;PMS7003;66382;52.252;8.780;2023-06-22T12:35:12;18.50;18.50;14.00
77320;PMS7003;66382;52.252;8.780;2023-06-22T12:37:38;19.00;19.00;15.80
77320;PMS7003;66382;52.252;8.780;2023-06-22T12:40:04;19.50;19.50;15.75
77320;PMS7003;66382;52.252;8.780;2023-06-22T12:42:31;18.60;18.60;15.00
77320;PMS7003;66382;52.252;8.780;2023-06-22T12:44:57;16.00;16.00;12.00
77320;PMS7003;66382;52.252;8.780;2023-06-22T12:47:22;15.75;15.75;12.75
77320;PMS7003;66382;52.252;8.780;2023-06-22T12:49:48;17.75;17.75;13.75
77320;PMS7003;66382;52.252;8.780;2023-06-22T12:52:15;15.75;15.75;14.00
77320;PMS7003;66382;52.252;8.780;2023-06-22T12:54:41;15.40;15.40;12.20
77320;PMS7003;66382;52.252;8.780;2023-06-22T12:57:06;18.25;18.25;14.75
77320;PMS7003;66382;52.252;8.780;2023-06-22T12:59:32;16.50;16.50;14.25
77320;PMS7003;66382;52.252;8.780;2023-06-22T13:01:58;18.00;18.00;13.00
77320;PMS7003;66382;52.252;8.780;2023-06-22T13:04:23;15.50;15.50;13.25
77320;PMS7003;66382;52.252;8.780;2023-06-22T13:06:49;15.25;15.25;11.75
77320;PMS7003;66382;52.252;8.780;2023-06-22T13:09:17;16.75;16.75;13.75
77320;PMS7003;66382;52.252;8.780;2023-06-22T13:11:43;20.00;20.00;15.40
77320;PMS7003;66382;52.252;8.780;2023-06-22T13:14:09;15.50;15.50;13.75
77320;PMS7003;66382;52.252;8.780;2023-06-22T13:16:35;20.80;20.80;14.80
77320;PMS7003;66382;52.252;8.780;2023-06-22T13:19:01;18.75;18.75;14.00
77320;PMS7003;66382;52.252;8.780;2023-06-22T13:21:27;16.75;16.75;13.25
77320;PMS7003;66382;52.252;8.780;2023-06-22T13:23:52;19.25;19.25;15.25
77320;PMS7003;66382;52.252;8.780;2023-06-22T13:26:20;19.25;19.25;15.75
77320;PMS7003;66382;52.252;8.780;2023-06-22T13:28:46;20.20;18.80;13.80
77320;PMS7003;66382;52.252;8.780;2023-06-22T13:31:11;15.00;15.00;10.25
77320;PMS7003;66382;52.252;8.780;2023-06-22T13:33:37;18.25;18.25;15.00
77320;PMS7003;66382;52.252;8.780;2023-06-22T13:36:03;22.20;22.20;16.20
77320;PMS7003;66382;52.252;8.780;2023-06-22T13:38:29;20.40;20.40;16.60
77320;PMS7003;66382;52.252;8.780;2023-06-22T13:40:55;18.75;18.75;15.25
77320;PMS7003;66382;52.252;8.780;2023-06-22T13:43:22;19.75;19.75;15.00